Terminal Aerodrome Forecast
Issued by NWS St Louis, MO

Home | Current Version | Previous Version | Graphics & Text | Print | Product List | Glossary On
Versions: 1 2 3 4 5 6 7 8 9 10 11 12 13 14 15 16 17 18 19 20 21 22 23 24 25
000
FTUS43 KLSX 211741
TAFSTL
TAF
KSTL 211741Z 2118/2224 04010KT P6SM VCSH BKN080
     FM212200 04010KT 6SM -SHRA BKN040
     FM220300 07013KT P6SM VCSH BKN025
     FM220600 06014G22KT 6SM -SHRA OVC020
     FM221100 05013KT 5SM RA OVC010
     FM221900 03013G22KT P6SM -RA OVC015=

USA.gov is the U.S. government's official web portal to all federal, state and local government web resources and services.